sensor_id;sensor_type;location;lat;lon;timestamp;P1;durP1;ratioP1;P2;durP2;ratioP2
57087;SDS011;42965;52.846;6.614;2023-11-21T00:02:21;80.00;;;29.85;;
57087;SDS011;42965;52.846;6.614;2023-11-21T00:04:48;66.70;;;26.70;;
57087;SDS011;42965;52.846;6.614;2023-11-21T00:07:14;59.13;;;25.08;;
57087;SDS011;42965;52.846;6.614;2023-11-21T00:09:41;72.35;;;27.70;;
57087;SDS011;42965;52.846;6.614;2023-11-21T00:12:10;66.38;;;26.02;;
57087;SDS011;42965;52.846;6.614;2023-11-21T00:14:37;71.32;;;28.40;;
57087;SDS011;42965;52.846;6.614;2023-11-21T00:17:07;61.85;;;27.13;;
57087;SDS011;42965;52.846;6.614;2023-11-21T00:19:37;63.15;;;26.75;;
57087;SDS011;42965;52.846;6.614;2023-11-21T00:22:03;67.70;;;28.10;;
57087;SDS011;42965;52.846;6.614;2023-11-21T00:24:30;63.88;;;27.10;;
57087;SDS011;42965;52.846;6.614;2023-11-21T00:26:58;57.88;;;26.13;;
57087;SDS011;42965;52.846;6.614;2023-11-21T00:29:24;63.70;;;25.77;;
57087;SDS011;42965;52.846;6.614;2023-11-21T00:31:52;66.57;;;28.50;;
57087;SDS011;42965;52.846;6.614;2023-11-21T00:34:21;59.75;;;25.02;;
57087;SDS011;42965;52.846;6.614;2023-11-21T00:36:48;67.90;;;26.65;;
57087;SDS011;42965;52.846;6.614;2023-11-21T00:39:14;50.67;;;24.67;;
57087;SDS011;42965;52.846;6.614;2023-11-21T00:41:41;52.97;;;23.42;;
57087;SDS011;42965;52.846;6.614;2023-11-21T00:44:07;65.25;;;25.85;;
57087;SDS011;42965;52.846;6.614;2023-11-21T00:46:34;52.45;;;26.08;;
57087;SDS011;42965;52.846;6.614;2023-11-21T00:49:00;64.90;;;27.05;;
57087;SDS011;42965;52.846;6.614;2023-11-21T00:51:27;64.13;;;25.88;;
57087;SDS011;42965;52.846;6.614;2023-11-21T00:53:53;54.05;;;25.83;;
57087;SDS011;42965;52.846;6.614;2023-11-21T00:56:19;53.15;;;24.77;;
57087;SDS011;42965;52.846;6.614;2023-11-21T00:58:46;58.22;;;25.83;;
57087;SDS011;42965;52.846;6.614;2023-11-21T01:01:15;58.75;;;25.75;;
57087;SDS011;42965;52.846;6.614;2023-11-21T01:03:42;55.30;;;24.25;;
57087;SDS011;42965;52.846;6.614;2023-11-21T01:06:09;56.38;;;24.92;;
57087;SDS011;42965;52.846;6.614;2023-11-21T01:08:35;58.17;;;25.58;;
57087;SDS011;42965;52.846;6.614;2023-11-21T01:11:01;61.88;;;25.10;;
57087;SDS011;42965;52.846;6.614;2023-11-21T01:13:28;51.97;;;23.45;;
57087;SDS011;42965;52.846;6.614;2023-11-21T01:15:55;57.13;;;23.70;;
57087;SDS011;42965;52.846;6.614;2023-11-21T01:18:22;56.10;;;23.55;;
57087;SDS011;42965;52.846;6.614;2023-11-21T01:20:51;55.35;;;23.80;;
57087;SDS011;42965;52.846;6.614;2023-11-21T01:23:19;58.88;;;25.30;;
57087;SDS011;42965;52.846;6.614;2023-11-21T01:25:45;48.83;;;23.30;;
57087;SDS011;42965;52.846;6.614;2023-11-21T01:28:12;61.55;;;24.33;;
57087;SDS011;42965;52.846;6.614;2023-11-21T01:30:39;60.78;;;24.27;;
57087;SDS011;42965;52.846;6.614;2023-11-21T01:33:05;51.92;;;23.08;;
57087;SDS011;42965;52.846;6.614;2023-11-21T01:35:31;57.28;;;23.38;;
57087;SDS011;42965;52.846;6.614;2023-11-21T01:37:57;54.85;;;23.25;;
57087;SDS011;42965;52.846;6.614;2023-11-21T01:40:24;58.28;;;23.48;;
57087;SDS011;42965;52.846;6.614;2023-11-21T01:42:50;51.63;;;23.95;;
57087;SDS011;42965;52.846;6.614;2023-11-21T01:45:18;51.05;;;22.88;;
57087;SDS011;42965;52.846;6.614;2023-11-21T01:47:45;58.05;;;23.70;;
57087;SDS011;42965;52.846;6.614;2023-11-21T01:50:13;51.33;;;23.50;;
57087;SDS011;42965;52.846;6.614;2023-11-21T01:52:42;46.78;;;22.17;;
57087;SDS011;42965;52.846;6.614;2023-11-21T01:55:11;49.08;;;23.05;;
57087;SDS011;42965;52.846;6.614;2023-11-21T01:57:40;51.33;;;21.02;;
57087;SDS011;42965;52.846;6.614;2023-11-21T02:00:08;47.63;;;21.58;;
57087;SDS011;42965;52.846;6.614;2023-11-21T02:02:43;56.50;;;22.85;;
57087;SDS011;42965;52.846;6.614;2023-11-21T02:05:11;54.20;;;23.05;;
57087;SDS011;42965;52.846;6.614;2023-11-21T02:07:39;54.88;;;24.25;;
57087;SDS011;42965;52.846;6.614;2023-11-21T02:10:07;53.28;;;22.65;;
57087;SDS011;42965;52.846;6.614;2023-11-21T02:12:34;51.45;;;22.60;;
57087;SDS011;42965;52.846;6.614;2023-11-21T02:15:02;53.30;;;21.73;;
57087;SDS011;42965;52.846;6.614;2023-11-21T02:17:35;53.47;;;23.42;;
57087;SDS011;42965;52.846;6.614;2023-11-21T02:20:02;55.80;;;25.25;;
57087;SDS011;42965;52.846;6.614;2023-11-21T02:22:32;55.25;;;24.08;;
57087;SDS011;42965;52.846;6.614;2023-11-21T02:25:04;62.60;;;24.90;;
57087;SDS011;42965;52.846;6.614;2023-11-21T02:27:30;66.63;;;27.85;;
57087;SDS011;42965;52.846;6.614;2023-11-21T02:29:57;63.22;;;27.98;;
57087;SDS011;42965;52.846;6.614;2023-11-21T02:32:24;59.00;;;25.80;;
57087;SDS011;42965;52.846;6.614;2023-11-21T02:34:51;63.35;;;26.00;;
57087;SDS011;42965;52.846;6.614;2023-11-21T02:37:21;62.55;;;26.50;;
57087;SDS011;42965;52.846;6.614;2023-11-21T02:39:47;62.55;;;26.95;;
57087;SDS011;42965;52.846;6.614;2023-11-21T02:42:14;79.45;;;29.70;;
57087;SDS011;42965;52.846;6.614;2023-11-21T02:44:40;76.45;;;29.23;;
57087;SDS011;42965;52.846;6.614;2023-11-21T02:47:07;84.47;;;29.85;;
57087;SDS011;42965;52.846;6.614;2023-11-21T02:49:34;83.03;;;29.98;;
57087;SDS011;42965;52.846;6.614;2023-11-21T02:52:01;73.18;;;29.92;;
57087;SDS011;42965;52.846;6.614;2023-11-21T02:54:28;69.35;;;28.83;;
57087;SDS011;42965;52.846;6.614;2023-11-21T02:56:54;87.90;;;30.20;;
57087;SDS011;42965;52.846;6.614;2023-11-21T02:59:21;97.40;;;31.50;;
57087;SDS011;42965;52.846;6.614;2023-11-21T03:01:47;107.88;;;33.95;;
57087;SDS011;42965;52.846;6.614;2023-11-21T03:04:15;112.75;;;34.47;;
57087;SDS011;42965;52.846;6.614;2023-11-21T03:06:44;81.63;;;30.70;;
57087;SDS011;42965;52.846;6.614;2023-11-21T03:09:11;80.78;;;30.20;;
57087;SDS011;42965;52.846;6.614;2023-11-21T03:11:38;91.32;;;32.28;;
57087;SDS011;42965;52.846;6.614;2023-11-21T03:14:05;99.30;;;34.47;;
57087;SDS011;42965;52.846;6.614;2023-11-21T03:16:34;93.18;;;31.48;;
57087;SDS011;42965;52.846;6.614;2023-11-21T03:19:01;119.03;;;35.47;;
57087;SDS011;42965;52.846;6.614;2023-11-21T03:21:27;118.57;;;36.08;;
57087;SDS011;42965;52.846;6.614;2023-11-21T03:23:54;119.57;;;37.55;;
57087;SDS011;42965;52.846;6.614;2023-11-21T03:26:21;119.25;;;37.00;;
57087;SDS011;42965;52.846;6.614;2023-11-21T03:28:47;132.23;;;38.20;;
57087;SDS011;42965;52.846;6.614;2023-11-21T03:31:15;141.90;;;39.88;;
57087;SDS011;42965;52.846;6.614;2023-11-21T03:33:42;114.75;;;36.45;;
57087;SDS011;42965;52.846;6.614;2023-11-21T03:36:09;112.57;;;37.00;;
57087;SDS011;42965;52.846;6.614;2023-11-21T03:38:35;100.50;;;34.33;;
57087;SDS011;42965;52.846;6.614;2023-11-21T03:41:02;106.25;;;36.10;;
57087;SDS011;42965;52.846;6.614;2023-11-21T03:43:28;131.52;;;38.20;;
57087;SDS011;42965;52.846;6.614;2023-11-21T03:45:55;132.02;;;37.83;;
57087;SDS011;42965;52.846;6.614;2023-11-21T03:48:21;87.78;;;31.83;;
57087;SDS011;42965;52.846;6.614;2023-11-21T03:50:47;116.97;;;36.72;;
57087;SDS011;42965;52.846;6.614;2023-11-21T03:53:13;122.63;;;37.90;;
57087;SDS011;42965;52.846;6.614;2023-11-21T03:55:40;126.80;;;37.50;;
57087;SDS011;42965;52.846;6.614;2023-11-21T03:58:06;116.22;;;37.67;;
57087;SDS011;42965;52.846;6.614;2023-11-21T04:00:32;132.98;;;39.80;;
57087;SDS011;42965;52.846;6.614;2023-11-21T04:02:58;97.35;;;36.25;;
57087;SDS011;42965;52.846;6.614;2023-11-21T04:05:24;111.88;;;38.40;;
57087;SDS011;42965;52.846;6.614;2023-11-21T04:07:51;122.28;;;38.63;;
57087;SDS011;42965;52.846;6.614;2023-11-21T04:10:17;140.25;;;39.83;;
57087;SDS011;42965;52.846;6.614;2023-11-21T04:12:44;126.30;;;39.97;;
57087;SDS011;42965;52.846;6.614;2023-11-21T04:15:11;130.63;;;41.97;;
57087;SDS011;42965;52.846;6.614;2023-11-21T04:17:41;135.00;;;43.15;;
57087;SDS011;42965;52.846;6.614;2023-11-21T04:20:07;117.50;;;41.03;;
57087;SDS011;42965;52.846;6.614;2023-11-21T04:22:41;108.47;;;40.42;;
57087;SDS011;42965;52.846;6.614;2023-11-21T04:25:13;114.18;;;40.72;;
57087;SDS011;42965;52.846;6.614;2023-11-21T04:27:41;136.07;;;43.25;;
57087;SDS011;42965;52.846;6.614;2023-11-21T04:30:13;118.78;;;42.10;;
57087;SDS011;42965;52.846;6.614;2023-11-21T04:32:41;111.28;;;39.38;;
57087;SDS011;42965;52.846;6.614;2023-11-21T04:35:08;132.68;;;42.50;;
57087;SDS011;42965;52.846;6.614;2023-11-21T04:37:34;123.65;;;42.38;;
57087;SDS011;42965;52.846;6.614;2023-11-21T04:40:01;134.38;;;42.78;;
57087;SDS011;42965;52.846;6.614;2023-11-21T04:42:35;156.57;;;45.30;;
57087;SDS011;42965;52.846;6.614;2023-11-21T04:45:02;85.75;;;36.40;;
57087;SDS011;42965;52.846;6.614;2023-11-21T04:47:34;150.18;;;45.42;;
57087;SDS011;42965;52.846;6.614;2023-11-21T04:50:01;93.95;;;39.35;;
57087;SDS011;42965;52.846;6.614;2023-11-21T04:52:29;123.93;;;42.85;;
57087;SDS011;42965;52.846;6.614;2023-11-21T04:54:55;118.07;;;41.65;;
57087;SDS011;42965;52.846;6.614;2023-11-21T04:57:24;131.85;;;44.70;;
57087;SDS011;42965;52.846;6.614;2023-11-21T04:59:50;128.38;;;43.47;;
57087;SDS011;42965;52.846;6.614;2023-11-21T05:02:17;132.38;;;46.00;;
57087;SDS011;42965;52.846;6.614;2023-11-21T05:04:45;171.95;;;47.38;;
57087;SDS011;42965;52.846;6.614;2023-11-21T05:07:11;108.80;;;40.15;;
57087;SDS011;42965;52.846;6.614;2023-11-21T05:09:41;115.22;;;40.63;;
57087;SDS011;42965;52.846;6.614;2023-11-21T05:12:12;126.75;;;42.65;;
57087;SDS011;42965;52.846;6.614;2023-11-21T05:14:39;114.30;;;41.83;;
57087;SDS011;42965;52.846;6.614;2023-11-21T05:17:05;107.20;;;41.40;;
57087;SDS011;42965;52.846;6.614;2023-11-21T05:19:33;124.47;;;43.63;;
57087;SDS011;42965;52.846;6.614;2023-11-21T05:22:01;111.65;;;41.58;;
57087;SDS011;42965;52.846;6.614;2023-11-21T05:24:27;94.97;;;39.60;;
57087;SDS011;42965;52.846;6.614;2023-11-21T05:26:54;126.90;;;43.60;;
57087;SDS011;42965;52.846;6.614;2023-11-21T05:29:21;128.85;;;44.97;;
57087;SDS011;42965;52.846;6.614;2023-11-21T05:31:48;125.18;;;42.85;;
57087;SDS011;42965;52.846;6.614;2023-11-21T05:34:15;116.20;;;42.53;;
57087;SDS011;42965;52.846;6.614;2023-11-21T05:36:42;137.02;;;44.38;;
57087;SDS011;42965;52.846;6.614;2023-11-21T05:39:14;106.47;;;41.13;;
57087;SDS011;42965;52.846;6.614;2023-11-21T05:41:43;104.60;;;40.63;;
57087;SDS011;42965;52.846;6.614;2023-11-21T05:44:09;120.70;;;44.00;;
57087;SDS011;42965;52.846;6.614;2023-11-21T05:46:38;123.43;;;43.42;;
57087;SDS011;42965;52.846;6.614;2023-11-21T05:49:05;152.48;;;48.08;;
57087;SDS011;42965;52.846;6.614;2023-11-21T05:51:33;115.10;;;43.00;;
57087;SDS011;42965;52.846;6.614;2023-11-21T05:54:00;90.10;;;41.30;;
57087;SDS011;42965;52.846;6.614;2023-11-21T05:56:29;139.88;;;45.80;;
57087;SDS011;42965;52.846;6.614;2023-11-21T05:58:55;149.90;;;45.72;;
57087;SDS011;42965;52.846;6.614;2023-11-21T06:01:25;152.27;;;45.75;;
57087;SDS011;42965;52.846;6.614;2023-11-21T06:03:54;166.57;;;47.78;;
57087;SDS011;42965;52.846;6.614;2023-11-21T06:06:23;172.48;;;48.65;;
57087;SDS011;42965;52.846;6.614;2023-11-21T06:08:50;146.07;;;46.67;;
57087;SDS011;42965;52.846;6.614;2023-11-21T06:11:16;114.65;;;43.13;;
57087;SDS011;42965;52.846;6.614;2023-11-21T06:13:43;124.20;;;44.55;;
57087;SDS011;42965;52.846;6.614;2023-11-21T06:16:09;129.07;;;43.30;;
57087;SDS011;42965;52.846;6.614;2023-11-21T06:18:36;152.13;;;46.75;;
57087;SDS011;42965;52.846;6.614;2023-11-21T06:21:02;148.82;;;46.67;;
57087;SDS011;42965;52.846;6.614;2023-11-21T06:23:29;116.57;;;43.20;;
57087;SDS011;42965;52.846;6.614;2023-11-21T06:25:56;109.50;;;40.55;;
57087;SDS011;42965;52.846;6.614;2023-11-21T06:28:22;110.43;;;42.42;;
57087;SDS011;42965;52.846;6.614;2023-11-21T06:30:49;117.43;;;42.53;;
57087;SDS011;42965;52.846;6.614;2023-11-21T06:33:16;115.47;;;40.47;;
57087;SDS011;42965;52.846;6.614;2023-11-21T06:35:43;100.47;;;39.28;;
57087;SDS011;42965;52.846;6.614;2023-11-21T06:38:10;109.40;;;41.80;;
57087;SDS011;42965;52.846;6.614;2023-11-21T06:40:37;85.70;;;37.13;;
57087;SDS011;42965;52.846;6.614;2023-11-21T06:43:03;87.03;;;38.75;;
57087;SDS011;42965;52.846;6.614;2023-11-21T06:45:33;77.13;;;35.78;;
57087;SDS011;42965;52.846;6.614;2023-11-21T06:48:00;82.03;;;35.45;;
57087;SDS011;42965;52.846;6.614;2023-11-21T06:50:26;72.35;;;35.10;;
57087;SDS011;42965;52.846;6.614;2023-11-21T06:52:52;103.72;;;37.00;;
57087;SDS011;42965;52.846;6.614;2023-11-21T06:55:19;97.53;;;37.10;;
57087;SDS011;42965;52.846;6.614;2023-11-21T06:57:45;94.35;;;36.50;;
57087;SDS011;42965;52.846;6.614;2023-11-21T07:00:13;91.05;;;35.95;;
57087;SDS011;42965;52.846;6.614;2023-11-21T07:02:41;82.22;;;33.20;;
57087;SDS011;42965;52.846;6.614;2023-11-21T07:05:07;77.65;;;33.28;;
57087;SDS011;42965;52.846;6.614;2023-11-21T07:07:34;82.30;;;34.50;;
57087;SDS011;42965;52.846;6.614;2023-11-21T07:10:01;84.55;;;34.50;;
57087;SDS011;42965;52.846;6.614;2023-11-21T07:12:34;63.35;;;29.58;;
57087;SDS011;42965;52.846;6.614;2023-11-21T07:15:01;65.88;;;28.80;;
57087;SDS011;42965;52.846;6.614;2023-11-21T07:17:28;66.22;;;28.80;;
57087;SDS011;42965;52.846;6.614;2023-11-21T07:19:54;63.67;;;27.10;;
57087;SDS011;42965;52.846;6.614;2023-11-21T07:22:20;57.78;;;26.95;;
57087;SDS011;42965;52.846;6.614;2023-11-21T07:24:50;50.88;;;23.58;;
57087;SDS011;42965;52.846;6.614;2023-11-21T07:27:16;68.20;;;32.42;;
57087;SDS011;42965;52.846;6.614;2023-11-21T07:29:43;63.50;;;26.95;;
57087;SDS011;42965;52.846;6.614;2023-11-21T07:32:09;62.90;;;27.27;;
57087;SDS011;42965;52.846;6.614;2023-11-21T07:34:36;69.53;;;30.85;;
57087;SDS011;42965;52.846;6.614;2023-11-21T07:37:03;59.63;;;25.45;;
57087;SDS011;42965;52.846;6.614;2023-11-21T07:39:29;55.63;;;28.58;;
57087;SDS011;42965;52.846;6.614;2023-11-21T07:41:56;54.45;;;27.83;;
57087;SDS011;42965;52.846;6.614;2023-11-21T07:44:23;51.20;;;23.08;;
57087;SDS011;42965;52.846;6.614;2023-11-21T07:46:50;52.20;;;23.50;;
57087;SDS011;42965;52.846;6.614;2023-11-21T07:49:16;49.58;;;23.25;;
57087;SDS011;42965;52.846;6.614;2023-11-21T07:51:46;52.95;;;23.75;;
57087;SDS011;42965;52.846;6.614;2023-11-21T07:54:12;56.97;;;23.73;;
57087;SDS011;42965;52.846;6.614;2023-11-21T07:56:38;51.97;;;23.50;;
57087;SDS011;42965;52.846;6.614;2023-11-21T07:59:04;52.55;;;23.23;;
57087;SDS011;42965;52.846;6.614;2023-11-21T08:01:31;51.47;;;23.65;;
57087;SDS011;42965;52.846;6.614;2023-11-21T08:03:57;54.78;;;23.38;;
57087;SDS011;42965;52.846;6.614;2023-11-21T08:06:27;57.80;;;23.52;;
57087;SDS011;42965;52.846;6.614;2023-11-21T08:08:54;51.40;;;22.35;;
57087;SDS011;42965;52.846;6.614;2023-11-21T08:11:20;46.10;;;22.80;;
57087;SDS011;42965;52.846;6.614;2023-11-21T08:13:46;53.22;;;22.55;;
57087;SDS011;42965;52.846;6.614;2023-11-21T08:16:13;56.22;;;22.88;;
57087;SDS011;42965;52.846;6.614;2023-11-21T08:18:40;57.28;;;23.90;;
57087;SDS011;42965;52.846;6.614;2023-11-21T08:21:07;52.35;;;23.00;;
57087;SDS011;42965;52.846;6.614;2023-11-21T08:23:34;46.83;;;21.98;;
57087;SDS011;42965;52.846;6.614;2023-11-21T08:26:01;53.88;;;24.25;;
57087;SDS011;42965;52.846;6.614;2023-11-21T08:28:28;48.83;;;22.45;;
57087;SDS011;42965;52.846;6.614;2023-11-21T08:30:55;52.72;;;22.42;;
57087;SDS011;42965;52.846;6.614;2023-11-21T08:33:21;51.75;;;22.30;;
57087;SDS011;42965;52.846;6.614;2023-11-21T08:35:48;42.90;;;20.00;;
57087;SDS011;42965;52.846;6.614;2023-11-21T08:38:15;35.45;;;18.48;;
57087;SDS011;42965;52.846;6.614;2023-11-21T08:40:41;43.17;;;19.80;;
57087;SDS011;42965;52.846;6.614;2023-11-21T08:43:07;34.33;;;16.80;;
57087;SDS011;42965;52.846;6.614;2023-11-21T08:45:34;35.40;;;17.38;;
57087;SDS011;42965;52.846;6.614;2023-11-21T08:48:01;39.72;;;17.88;;
57087;SDS011;42965;52.846;6.614;2023-11-21T08:50:27;39.50;;;18.05;;
57087;SDS011;42965;52.846;6.614;2023-11-21T08:52:54;56.78;;;20.38;;
57087;SDS011;42965;52.846;6.614;2023-11-21T08:55:20;56.25;;;20.70;;
57087;SDS011;42965;52.846;6.614;2023-11-21T08:57:46;59.72;;;22.27;;
57087;SDS011;42965;52.846;6.614;2023-11-21T09:00:12;62.75;;;25.48;;
57087;SDS011;42965;52.846;6.614;2023-11-21T09:02:41;84.55;;;32.05;;
57087;SDS011;42965;52.846;6.614;2023-11-21T09:05:09;87.35;;;29.83;;
57087;SDS011;42965;52.846;6.614;2023-11-21T09:07:37;60.85;;;25.95;;
57087;SDS011;42965;52.846;6.614;2023-11-21T09:10:09;67.10;;;27.77;;
57087;SDS011;42965;52.846;6.614;2023-11-21T09:12:36;67.90;;;33.67;;
57087;SDS011;42965;52.846;6.614;2023-11-21T09:15:06;62.20;;;26.17;;
57087;SDS011;42965;52.846;6.614;2023-11-21T09:17:35;56.90;;;27.50;;
57087;SDS011;42965;52.846;6.614;2023-11-21T09:20:01;58.58;;;28.33;;
57087;SDS011;42965;52.846;6.614;2023-11-21T09:22:31;54.35;;;27.63;;
57087;SDS011;42965;52.846;6.614;2023-11-21T09:24:58;61.00;;;27.98;;
57087;SDS011;42965;52.846;6.614;2023-11-21T09:27:24;57.88;;;33.47;;
57087;SDS011;42965;52.846;6.614;2023-11-21T09:29:53;47.80;;;24.80;;
57087;SDS011;42965;52.846;6.614;2023-11-21T09:32:20;60.85;;;30.20;;
57087;SDS011;42965;52.846;6.614;2023-11-21T09:34:48;49.67;;;27.70;;
57087;SDS011;42965;52.846;6.614;2023-11-21T09:37:23;55.47;;;30.95;;
57087;SDS011;42965;52.846;6.614;2023-11-21T09:39:51;51.85;;;28.70;;
57087;SDS011;42965;52.846;6.614;2023-11-21T09:42:19;55.30;;;29.55;;
57087;SDS011;42965;52.846;6.614;2023-11-21T09:45:13;58.85;;;33.80;;
57087;SDS011;42965;52.846;6.614;2023-11-21T09:48:00;63.80;;;33.95;;
57087;SDS011;42965;52.846;6.614;2023-11-21T09:50:27;63.05;;;33.83;;
57087;SDS011;42965;52.846;6.614;2023-11-21T09:55:42;50.95;;;30.00;;
57087;SDS011;42965;52.846;6.614;2023-11-21T09:58:10;48.55;;;29.67;;
57087;SDS011;42965;52.846;6.614;2023-11-21T10:00:44;47.65;;;29.27;;
57087;SDS011;42965;52.846;6.614;2023-11-21T10:03:13;43.65;;;28.98;;
57087;SDS011;42965;52.846;6.614;2023-11-21T10:05:44;37.47;;;26.25;;
57087;SDS011;42965;52.846;6.614;2023-11-21T10:08:11;43.75;;;27.65;;
57087;SDS011;42965;52.846;6.614;2023-11-21T10:10:42;39.10;;;26.25;;
57087;SDS011;42965;52.846;6.614;2023-11-21T10:13:13;35.60;;;24.85;;
57087;SDS011;42965;52.846;6.614;2023-11-21T10:15:43;39.53;;;25.70;;
57087;SDS011;42965;52.846;6.614;2023-11-21T10:18:15;38.03;;;24.08;;
57087;SDS011;42965;52.846;6.614;2023-11-21T10:20:42;41.50;;;25.90;;
57087;SDS011;42965;52.846;6.614;2023-11-21T10:23:09;41.05;;;26.83;;
57087;SDS011;42965;52.846;6.614;2023-11-21T10:25:37;42.53;;;27.88;;
57087;SDS011;42965;52.846;6.614;2023-11-21T10:28:04;41.15;;;27.83;;
57087;SDS011;42965;52.846;6.614;2023-11-21T10:30:34;42.80;;;26.70;;
57087;SDS011;42965;52.846;6.614;2023-11-21T10:33:04;45.13;;;27.73;;
57087;SDS011;42965;52.846;6.614;2023-11-21T10:38:16;48.17;;;29.35;;
57087;SDS011;42965;52.846;6.614;2023-11-21T10:40:44;45.13;;;28.27;;
57087;SDS011;42965;52.846;6.614;2023-11-21T10:43:12;53.65;;;34.47;;
57087;SDS011;42965;52.846;6.614;2023-11-21T10:45:40;46.42;;;28.75;;
57087;SDS011;42965;52.846;6.614;2023-11-21T10:48:10;38.15;;;26.05;;
57087;SDS011;42965;52.846;6.614;2023-11-21T10:50:41;38.40;;;25.43;;
57087;SDS011;42965;52.846;6.614;2023-11-21T10:53:07;37.17;;;25.67;;
57087;SDS011;42965;52.846;6.614;2023-11-21T10:55:34;38.25;;;24.88;;
57087;SDS011;42965;52.846;6.614;2023-11-21T10:58:01;32.75;;;24.70;;
57087;SDS011;42965;52.846;6.614;2023-11-21T11:00:30;45.17;;;32.47;;
57087;SDS011;42965;52.846;6.614;2023-11-21T11:02:57;31.23;;;23.65;;
57087;SDS011;42965;52.846;6.614;2023-11-21T11:05:27;29.25;;;21.23;;
57087;SDS011;42965;52.846;6.614;2023-11-21T11:07:58;28.73;;;21.63;;
57087;SDS011;42965;52.846;6.614;2023-11-21T11:10:30;31.67;;;22.15;;
57087;SDS011;42965;52.846;6.614;2023-11-21T11:12:56;25.65;;;18.17;;
57087;SDS011;42965;52.846;6.614;2023-11-21T11:15:24;19.00;;;15.80;;
57087;SDS011;42965;52.846;6.614;2023-11-21T11:17:51;19.52;;;16.63;;
57087;SDS011;42965;52.846;6.614;2023-11-21T11:20:23;19.05;;;15.38;;
57087;SDS011;42965;52.846;6.614;2023-11-21T11:28:22;18.40;;;15.50;;
57087;SDS011;42965;52.846;6.614;2023-11-21T11:33:53;14.23;;;10.88;;
57087;SDS011;42965;52.846;6.614;2023-11-21T11:36:24;23.87;;;17.03;;
57087;SDS011;42965;52.846;6.614;2023-11-21T11:38:52;11.98;;;9.70;;
57087;SDS011;42965;52.846;6.614;2023-11-21T11:41:26;19.90;;;15.27;;
57087;SDS011;42965;52.846;6.614;2023-11-21T11:43:58;13.40;;;11.10;;
57087;SDS011;42965;52.846;6.614;2023-11-21T11:46:42;14.57;;;12.38;;
57087;SDS011;42965;52.846;6.614;2023-11-21T11:49:23;13.55;;;11.82;;
57087;SDS011;42965;52.846;6.614;2023-11-21T11:52:34;13.32;;;11.52;;
57087;SDS011;42965;52.846;6.614;2023-11-21T11:54:59;18.50;;;13.40;;
57087;SDS011;42965;52.846;6.614;2023-11-21T11:57:26;13.32;;;10.68;;
57087;SDS011;42965;52.846;6.614;2023-11-21T12:00:09;13.20;;;11.57;;
57087;SDS011;42965;52.846;6.614;2023-11-21T12:02:40;18.08;;;15.13;;
57087;SDS011;42965;52.846;6.614;2023-11-21T12:05:11;13.00;;;11.60;;
57087;SDS011;42965;52.846;6.614;2023-11-21T12:07:42;15.50;;;12.57;;
57087;SDS011;42965;52.846;6.614;2023-11-21T12:10:15;17.45;;;14.70;;
57087;SDS011;42965;52.846;6.614;2023-11-21T12:12:44;14.77;;;12.70;;
57087;SDS011;42965;52.846;6.614;2023-11-21T12:15:12;13.77;;;11.60;;
57087;SDS011;42965;52.846;6.614;2023-11-21T12:17:39;14.63;;;11.93;;
57087;SDS011;42965;52.846;6.614;2023-11-21T12:20:07;13.43;;;11.35;;
57087;SDS011;42965;52.846;6.614;2023-11-21T12:22:46;13.70;;;10.85;;
57087;SDS011;42965;52.846;6.614;2023-11-21T12:25:18;13.45;;;11.68;;
57087;SDS011;42965;52.846;6.614;2023-11-21T12:27:45;12.13;;;10.47;;
57087;SDS011;42965;52.846;6.614;2023-11-21T12:30:18;13.23;;;11.30;;
57087;SDS011;42965;52.846;6.614;2023-11-21T12:32:48;12.35;;;10.60;;
57087;SDS011;42965;52.846;6.614;2023-11-21T12:35:18;12.45;;;10.68;;
57087;SDS011;42965;52.846;6.614;2023-11-21T12:37:45;12.25;;;10.77;;
57087;SDS011;42965;52.846;6.614;2023-11-21T12:40:12;11.90;;;10.57;;
57087;SDS011;42965;52.846;6.614;2023-11-21T12:42:41;13.88;;;11.63;;
57087;SDS011;42965;52.846;6.614;2023-11-21T12:45:09;10.85;;;9.63;;
57087;SDS011;42965;52.846;6.614;2023-11-21T12:47:47;12.23;;;10.38;;
57087;SDS011;42965;52.846;6.614;2023-11-21T12:50:21;10.27;;;9.18;;
57087;SDS011;42965;52.846;6.614;2023-11-21T12:52:57;11.23;;;8.85;;
57087;SDS011;42965;52.846;6.614;2023-11-21T12:55:25;11.25;;;9.32;;
57087;SDS011;42965;52.846;6.614;2023-11-21T12:57:52;10.63;;;8.13;;
57087;SDS011;42965;52.846;6.614;2023-11-21T13:00:33;11.30;;;9.55;;
57087;SDS011;42965;52.846;6.614;2023-11-21T13:03:04;9.98;;;8.52;;
57087;SDS011;42965;52.846;6.614;2023-11-21T13:05:33;11.05;;;9.45;;
57087;SDS011;42965;52.846;6.614;2023-11-21T13:08:02;10.48;;;8.50;;
57087;SDS011;42965;52.846;6.614;2023-11-21T13:10:33;10.93;;;7.90;;
57087;SDS011;42965;52.846;6.614;2023-11-21T13:13:02;11.52;;;9.27;;
57087;SDS011;42965;52.846;6.614;2023-11-21T13:15:39;15.23;;;12.18;;
57087;SDS011;42965;52.846;6.614;2023-11-21T13:18:08;12.70;;;9.32;;
57087;SDS011;42965;52.846;6.614;2023-11-21T13:20:37;12.85;;;10.60;;
57087;SDS011;42965;52.846;6.614;2023-11-21T13:23:07;9.40;;;8.00;;
57087;SDS011;42965;52.846;6.614;2023-11-21T13:25:34;10.13;;;8.60;;
57087;SDS011;42965;52.846;6.614;2023-11-21T13:28:02;11.55;;;10.05;;
57087;SDS011;42965;52.846;6.614;2023-11-21T13:30:28;11.65;;;8.32;;
57087;SDS011;42965;52.846;6.614;2023-11-21T13:33:02;11.38;;;9.55;;
57087;SDS011;42965;52.846;6.614;2023-11-21T13:35:37;10.65;;;9.10;;
57087;SDS011;42965;52.846;6.614;2023-11-21T13:38:08;10.85;;;9.10;;
57087;SDS011;42965;52.846;6.614;2023-11-21T13:40:36;16.48;;;13.88;;
57087;SDS011;42965;52.846;6.614;2023-11-21T13:43:12;11.20;;;9.07;;
57087;SDS011;42965;52.846;6.614;2023-11-21T13:45:42;12.65;;;8.88;;
57087;SDS011;42965;52.846;6.614;2023-11-21T13:48:09;11.45;;;8.93;;
57087;SDS011;42965;52.846;6.614;2023-11-21T13:50:39;13.65;;;10.05;;
57087;SDS011;42965;52.846;6.614;2023-11-21T13:53:14;9.35;;;7.82;;
57087;SDS011;42965;52.846;6.614;2023-11-21T13:55:54;10.60;;;8.70;;
57087;SDS011;42965;52.846;6.614;2023-11-21T13:58:21;10.27;;;8.60;;
57087;SDS011;42965;52.846;6.614;2023-11-21T14:01:02;10.38;;;8.93;;
57087;SDS011;42965;52.846;6.614;2023-11-21T14:03:31;12.63;;;10.57;;
57087;SDS011;42965;52.846;6.614;2023-11-21T14:06:17;10.85;;;9.55;;
57087;SDS011;42965;52.846;6.614;2023-11-21T14:08:51;9.23;;;8.10;;
57087;SDS011;42965;52.846;6.614;2023-11-21T14:11:18;12.55;;;8.10;;
57087;SDS011;42965;52.846;6.614;2023-11-21T14:13:47;13.45;;;9.18;;
57087;SDS011;42965;52.846;6.614;2023-11-21T14:16:14;11.95;;;9.52;;
57087;SDS011;42965;52.846;6.614;2023-11-21T14:18:42;9.77;;;7.55;;
57087;SDS011;42965;52.846;6.614;2023-11-21T14:21:21;10.98;;;8.38;;
57087;SDS011;42965;52.846;6.614;2023-11-21T14:23:47;10.38;;;9.27;;
57087;SDS011;42965;52.846;6.614;2023-11-21T14:26:14;11.63;;;8.20;;
57087;SDS011;42965;52.846;6.614;2023-11-21T14:28:41;11.15;;;8.18;;
57087;SDS011;42965;52.846;6.614;2023-11-21T14:31:08;10.43;;;8.95;;
57087;SDS011;42965;52.846;6.614;2023-11-21T14:33:41;9.65;;;8.30;;
57087;SDS011;42965;52.846;6.614;2023-11-21T14:36:07;9.40;;;7.85;;
57087;SDS011;42965;52.846;6.614;2023-11-21T14:38:36;12.05;;;8.38;;
57087;SDS011;42965;52.846;6.614;2023-11-21T14:41:06;12.27;;;8.77;;
57087;SDS011;42965;52.846;6.614;2023-11-21T14:43:38;19.13;;;14.18;;